sensor_id;sensor_type;location;lat;lon;timestamp;temperature;humidity
18141;DHT22;9196;49.194;12.526;2022-09-09T00:01:46;14.60;99.90
18141;DHT22;9196;49.194;12.526;2022-09-09T00:04:24;14.60;99.90
18141;DHT22;9196;49.194;12.526;2022-09-09T00:06:59;14.50;99.90
18141;DHT22;9196;49.194;12.526;2022-09-09T00:09:30;14.50;99.90
18141;DHT22;9196;49.194;12.526;2022-09-09T00:12:02;14.50;99.90
18141;DHT22;9196;49.194;12.526;2022-09-09T00:14:38;14.50;99.90
18141;DHT22;9196;49.194;12.526;2022-09-09T00:17:11;14.50;99.90
18141;DHT22;9196;49.194;12.526;2022-09-09T00:19:44;14.60;99.90
18141;DHT22;9196;49.194;12.526;2022-09-09T00:22:18;14.50;99.90
18141;DHT22;9196;49.194;12.526;2022-09-09T00:24:47;14.50;99.90
18141;DHT22;9196;49.194;12.526;2022-09-09T00:27:21;14.50;99.90
18141;DHT22;9196;49.194;12.526;2022-09-09T00:29:53;14.40;99.90
18141;DHT22;9196;49.194;12.526;2022-09-09T00:32:22;14.40;99.90
18141;DHT22;9196;49.194;12.526;2022-09-09T00:34:56;14.40;99.90
18141;DHT22;9196;49.194;12.526;2022-09-09T00:37:26;14.40;99.90
18141;DHT22;9196;49.194;12.526;2022-09-09T00:39:59;14.30;99.90
18141;DHT22;9196;49.194;12.526;2022-09-09T00:42:35;14.30;99.90
18141;DHT22;9196;49.194;12.526;2022-09-09T00:45:17;14.30;99.90
18141;DHT22;9196;49.194;12.526;2022-09-09T00:47:46;14.20;99.90
18141;DHT22;9196;49.194;12.526;2022-09-09T00:53:22;14.20;99.90
18141;DHT22;9196;49.194;12.526;2022-09-09T00:56:03;14.20;99.90
18141;DHT22;9196;49.194;12.526;2022-09-09T00:58:32;14.20;99.90
18141;DHT22;9196;49.194;12.526;2022-09-09T01:01:03;14.10;99.90
18141;DHT22;9196;49.194;12.526;2022-09-09T01:03:35;14.10;99.90
18141;DHT22;9196;49.194;12.526;2022-09-09T01:06:14;14.10;99.90
18141;DHT22;9196;49.194;12.526;2022-09-09T01:09:05;14.10;99.90
18141;DHT22;9196;49.194;12.526;2022-09-09T01:11:43;14.10;99.90
18141;DHT22;9196;49.194;12.526;2022-09-09T01:14:20;14.00;99.90
18141;DHT22;9196;49.194;12.526;2022-09-09T01:16:50;14.00;99.90
18141;DHT22;9196;49.194;12.526;2022-09-09T01:19:23;14.00;99.90
18141;DHT22;9196;49.194;12.526;2022-09-09T01:21:59;13.90;99.90
18141;DHT22;9196;49.194;12.526;2022-09-09T01:24:31;13.90;99.90
18141;DHT22;9196;49.194;12.526;2022-09-09T01:27:06;13.90;99.90
18141;DHT22;9196;49.194;12.526;2022-09-09T01:29:34;13.90;99.90
18141;DHT22;9196;49.194;12.526;2022-09-09T01:32:37;13.80;99.90
18141;DHT22;9196;49.194;12.526;2022-09-09T01:35:08;13.80;99.90
18141;DHT22;9196;49.194;12.526;2022-09-09T01:37:36;13.80;99.90
18141;DHT22;9196;49.194;12.526;2022-09-09T01:40:04;13.80;99.90
18141;DHT22;9196;49.194;12.526;2022-09-09T01:42:31;13.80;99.90
18141;DHT22;9196;49.194;12.526;2022-09-09T01:44:58;13.70;99.90
18141;DHT22;9196;49.194;12.526;2022-09-09T01:47:25;13.70;99.90
18141;DHT22;9196;49.194;12.526;2022-09-09T01:49:52;13.70;99.90
18141;DHT22;9196;49.194;12.526;2022-09-09T01:52:20;13.70;99.90
18141;DHT22;9196;49.194;12.526;2022-09-09T01:54:47;13.60;99.90
18141;DHT22;9196;49.194;12.526;2022-09-09T01:57:18;13.60;99.90
18141;DHT22;9196;49.194;12.526;2022-09-09T01:59:57;13.60;99.90
18141;DHT22;9196;49.194;12.526;2022-09-09T02:02:30;13.70;99.90
18141;DHT22;9196;49.194;12.526;2022-09-09T02:05:08;13.60;99.90
18141;DHT22;9196;49.194;12.526;2022-09-09T02:07:41;13.60;99.90
18141;DHT22;9196;49.194;12.526;2022-09-09T02:10:11;13.50;99.90
18141;DHT22;9196;49.194;12.526;2022-09-09T02:12:42;13.40;99.90
18141;DHT22;9196;49.194;12.526;2022-09-09T02:15:16;13.40;99.90
18141;DHT22;9196;49.194;12.526;2022-09-09T02:17:46;13.30;99.90
18141;DHT22;9196;49.194;12.526;2022-09-09T02:20:16;13.30;99.90
18141;DHT22;9196;49.194;12.526;2022-09-09T02:22:48;13.20;99.90
18141;DHT22;9196;49.194;12.526;2022-09-09T02:25:19;13.30;99.90
18141;DHT22;9196;49.194;12.526;2022-09-09T02:27:49;13.30;99.90
18141;DHT22;9196;49.194;12.526;2022-09-09T02:30:17;13.30;99.90
18141;DHT22;9196;49.194;12.526;2022-09-09T02:32:46;13.30;99.90
18141;DHT22;9196;49.194;12.526;2022-09-09T02:35:17;13.30;99.90
18141;DHT22;9196;49.194;12.526;2022-09-09T02:37:47;13.30;99.90
18141;DHT22;9196;49.194;12.526;2022-09-09T02:40:16;13.30;99.90
18141;DHT22;9196;49.194;12.526;2022-09-09T02:42:45;13.30;99.90
18141;DHT22;9196;49.194;12.526;2022-09-09T02:45:15;13.30;99.90
18141;DHT22;9196;49.194;12.526;2022-09-09T02:47:48;13.30;99.90
18141;DHT22;9196;49.194;12.526;2022-09-09T02:50:21;13.20;99.90
18141;DHT22;9196;49.194;12.526;2022-09-09T02:52:59;13.20;99.90
18141;DHT22;9196;49.194;12.526;2022-09-09T02:55:35;13.30;99.90
18141;DHT22;9196;49.194;12.526;2022-09-09T02:58:05;13.30;99.90
18141;DHT22;9196;49.194;12.526;2022-09-09T03:00:34;13.30;99.90
18141;DHT22;9196;49.194;12.526;2022-09-09T03:03:02;13.30;99.90
18141;DHT22;9196;49.194;12.526;2022-09-09T03:05:29;13.20;99.90
18141;DHT22;9196;49.194;12.526;2022-09-09T03:07:57;13.20;99.90
18141;DHT22;9196;49.194;12.526;2022-09-09T03:10:24;13.20;99.90
18141;DHT22;9196;49.194;12.526;2022-09-09T03:12:51;13.20;99.90
18141;DHT22;9196;49.194;12.526;2022-09-09T03:15:18;13.20;99.90
18141;DHT22;9196;49.194;12.526;2022-09-09T03:17:44;13.20;99.90
18141;DHT22;9196;49.194;12.526;2022-09-09T03:20:11;13.20;99.90
18141;DHT22;9196;49.194;12.526;2022-09-09T03:22:38;13.10;99.90
18141;DHT22;9196;49.194;12.526;2022-09-09T03:25:07;13.00;99.90
18141;DHT22;9196;49.194;12.526;2022-09-09T03:27:34;13.00;99.90
18141;DHT22;9196;49.194;12.526;2022-09-09T03:30:01;13.00;99.90
18141;DHT22;9196;49.194;12.526;2022-09-09T03:32:29;13.00;99.90
18141;DHT22;9196;49.194;12.526;2022-09-09T03:34:56;13.00;99.90
18141;DHT22;9196;49.194;12.526;2022-09-09T03:37:23;13.00;99.90
18141;DHT22;9196;49.194;12.526;2022-09-09T03:39:50;13.00;99.90
18141;DHT22;9196;49.194;12.526;2022-09-09T03:42:21;13.00;99.90
18141;DHT22;9196;49.194;12.526;2022-09-09T03:44:48;13.00;99.90
18141;DHT22;9196;49.194;12.526;2022-09-09T03:47:16;12.90;99.90
18141;DHT22;9196;49.194;12.526;2022-09-09T03:49:44;12.90;99.90
18141;DHT22;9196;49.194;12.526;2022-09-09T03:52:12;12.90;99.90
18141;DHT22;9196;49.194;12.526;2022-09-09T03:54:39;12.90;99.90
18141;DHT22;9196;49.194;12.526;2022-09-09T03:57:06;12.80;99.90
18141;DHT22;9196;49.194;12.526;2022-09-09T03:59:35;12.80;99.90
18141;DHT22;9196;49.194;12.526;2022-09-09T04:02:02;12.80;99.90
18141;DHT22;9196;49.194;12.526;2022-09-09T04:04:28;12.80;99.90
18141;DHT22;9196;49.194;12.526;2022-09-09T04:06:55;12.80;99.90
18141;DHT22;9196;49.194;12.526;2022-09-09T04:09:22;12.80;99.90
18141;DHT22;9196;49.194;12.526;2022-09-09T04:11:49;12.90;99.90
18141;DHT22;9196;49.194;12.526;2022-09-09T04:14:15;13.00;99.90
18141;DHT22;9196;49.194;12.526;2022-09-09T04:16:44;13.10;99.90
18141;DHT22;9196;49.194;12.526;2022-09-09T04:19:11;13.10;99.90
18141;DHT22;9196;49.194;12.526;2022-09-09T04:21:39;13.10;99.90
18141;DHT22;9196;49.194;12.526;2022-09-09T04:24:06;13.10;99.90
18141;DHT22;9196;49.194;12.526;2022-09-09T04:26:39;13.10;99.90
18141;DHT22;9196;49.194;12.526;2022-09-09T04:29:07;13.10;99.90
18141;DHT22;9196;49.194;12.526;2022-09-09T04:31:33;13.00;99.90
18141;DHT22;9196;49.194;12.526;2022-09-09T04:34:02;13.00;99.90
18141;DHT22;9196;49.194;12.526;2022-09-09T04:36:31;13.00;99.90
18141;DHT22;9196;49.194;12.526;2022-09-09T04:38:58;13.00;99.90
18141;DHT22;9196;49.194;12.526;2022-09-09T04:41:25;13.00;99.90
18141;DHT22;9196;49.194;12.526;2022-09-09T04:43:52;13.10;99.90
18141;DHT22;9196;49.194;12.526;2022-09-09T04:46:19;13.20;99.90
18141;DHT22;9196;49.194;12.526;2022-09-09T04:48:49;13.30;99.90
18141;DHT22;9196;49.194;12.526;2022-09-09T04:51:18;13.40;99.90
18141;DHT22;9196;49.194;12.526;2022-09-09T04:53:44;13.60;99.90
18141;DHT22;9196;49.194;12.526;2022-09-09T04:56:14;13.70;99.90
18141;DHT22;9196;49.194;12.526;2022-09-09T04:58:41;13.70;99.90
18141;DHT22;9196;49.194;12.526;2022-09-09T05:01:10;13.60;99.90
18141;DHT22;9196;49.194;12.526;2022-09-09T05:03:37;13.50;99.90
18141;DHT22;9196;49.194;12.526;2022-09-09T05:06:06;13.40;99.90
18141;DHT22;9196;49.194;12.526;2022-09-09T05:08:35;13.20;99.90
18141;DHT22;9196;49.194;12.526;2022-09-09T05:11:02;13.10;99.90
18141;DHT22;9196;49.194;12.526;2022-09-09T05:13:29;13.10;99.90
18141;DHT22;9196;49.194;12.526;2022-09-09T05:15:57;13.00;99.90
18141;DHT22;9196;49.194;12.526;2022-09-09T05:18:24;13.10;99.90
18141;DHT22;9196;49.194;12.526;2022-09-09T05:20:51;13.10;99.90
18141;DHT22;9196;49.194;12.526;2022-09-09T05:23:18;13.10;99.90
18141;DHT22;9196;49.194;12.526;2022-09-09T05:25:55;13.20;99.90
18141;DHT22;9196;49.194;12.526;2022-09-09T05:28:23;13.20;99.90
18141;DHT22;9196;49.194;12.526;2022-09-09T05:30:56;13.20;99.90
18141;DHT22;9196;49.194;12.526;2022-09-09T05:33:23;13.20;99.90
18141;DHT22;9196;49.194;12.526;2022-09-09T05:35:56;13.30;99.90
18141;DHT22;9196;49.194;12.526;2022-09-09T05:38:22;13.30;99.90
18141;DHT22;9196;49.194;12.526;2022-09-09T05:40:50;13.40;99.90
18141;DHT22;9196;49.194;12.526;2022-09-09T05:43:19;13.40;99.90
18141;DHT22;9196;49.194;12.526;2022-09-09T05:45:46;13.40;99.90
18141;DHT22;9196;49.194;12.526;2022-09-09T05:48:13;13.50;99.90
18141;DHT22;9196;49.194;12.526;2022-09-09T05:50:41;13.80;99.90
18141;DHT22;9196;49.194;12.526;2022-09-09T05:53:08;13.90;99.90
18141;DHT22;9196;49.194;12.526;2022-09-09T05:55:35;14.10;99.90
18141;DHT22;9196;49.194;12.526;2022-09-09T05:58:02;14.20;99.90
18141;DHT22;9196;49.194;12.526;2022-09-09T06:00:31;14.40;99.90
18141;DHT22;9196;49.194;12.526;2022-09-09T06:02:58;14.50;99.90
18141;DHT22;9196;49.194;12.526;2022-09-09T06:05:24;14.60;99.90
18141;DHT22;9196;49.194;12.526;2022-09-09T06:07:52;14.60;99.90
18141;DHT22;9196;49.194;12.526;2022-09-09T06:10:19;14.60;99.90
18141;DHT22;9196;49.194;12.526;2022-09-09T06:12:46;14.70;99.90
18141;DHT22;9196;49.194;12.526;2022-09-09T06:15:13;14.80;99.90
18141;DHT22;9196;49.194;12.526;2022-09-09T06:17:41;14.90;99.90
18141;DHT22;9196;49.194;12.526;2022-09-09T06:20:09;15.00;99.90
18141;DHT22;9196;49.194;12.526;2022-09-09T06:22:36;15.00;99.90
18141;DHT22;9196;49.194;12.526;2022-09-09T06:25:03;15.00;99.90
18141;DHT22;9196;49.194;12.526;2022-09-09T06:27:30;14.90;99.90
18141;DHT22;9196;49.194;12.526;2022-09-09T06:29:56;15.00;99.90
18141;DHT22;9196;49.194;12.526;2022-09-09T06:32:23;14.90;99.90
18141;DHT22;9196;49.194;12.526;2022-09-09T06:34:51;15.00;99.90
18141;DHT22;9196;49.194;12.526;2022-09-09T06:37:18;15.00;99.90
18141;DHT22;9196;49.194;12.526;2022-09-09T06:39:45;15.00;99.90
18141;DHT22;9196;49.194;12.526;2022-09-09T06:42:13;15.00;99.90
18141;DHT22;9196;49.194;12.526;2022-09-09T06:44:41;15.10;99.90
18141;DHT22;9196;49.194;12.526;2022-09-09T06:47:07;15.30;99.90
18141;DHT22;9196;49.194;12.526;2022-09-09T06:49:34;15.50;99.90
18141;DHT22;9196;49.194;12.526;2022-09-09T06:52:02;15.60;99.90
18141;DHT22;9196;49.194;12.526;2022-09-09T06:54:29;15.70;99.90
18141;DHT22;9196;49.194;12.526;2022-09-09T06:56:56;15.80;99.90
18141;DHT22;9196;49.194;12.526;2022-09-09T06:59:23;15.70;99.90
18141;DHT22;9196;49.194;12.526;2022-09-09T07:01:49;15.70;99.90
18141;DHT22;9196;49.194;12.526;2022-09-09T07:04:17;15.80;99.90
18141;DHT22;9196;49.194;12.526;2022-09-09T07:06:45;15.80;99.90
18141;DHT22;9196;49.194;12.526;2022-09-09T07:09:14;15.80;99.90
18141;DHT22;9196;49.194;12.526;2022-09-09T07:11:43;15.80;99.90
18141;DHT22;9196;49.194;12.526;2022-09-09T07:14:11;15.90;99.90
18141;DHT22;9196;49.194;12.526;2022-09-09T07:16:39;16.00;99.90
18141;DHT22;9196;49.194;12.526;2022-09-09T07:19:06;16.00;99.90
18141;DHT22;9196;49.194;12.526;2022-09-09T07:21:33;16.10;99.90
18141;DHT22;9196;49.194;12.526;2022-09-09T07:24:00;16.10;99.90
18141;DHT22;9196;49.194;12.526;2022-09-09T07:26:30;16.20;99.90
18141;DHT22;9196;49.194;12.526;2022-09-09T07:28:57;16.40;99.90
18141;DHT22;9196;49.194;12.526;2022-09-09T07:31:25;16.50;99.90
18141;DHT22;9196;49.194;12.526;2022-09-09T07:33:52;16.60;99.90
18141;DHT22;9196;49.194;12.526;2022-09-09T07:36:20;16.90;99.90
18141;DHT22;9196;49.194;12.526;2022-09-09T07:38:49;17.10;99.90
18141;DHT22;9196;49.194;12.526;2022-09-09T07:41:19;17.30;99.90
18141;DHT22;9196;49.194;12.526;2022-09-09T07:43:49;17.50;99.90
18141;DHT22;9196;49.194;12.526;2022-09-09T07:46:18;17.50;99.90
18141;DHT22;9196;49.194;12.526;2022-09-09T07:48:47;17.60;99.90
18141;DHT22;9196;49.194;12.526;2022-09-09T07:51:19;17.70;99.90
18141;DHT22;9196;49.194;12.526;2022-09-09T07:53:47;17.90;99.90
18141;DHT22;9196;49.194;12.526;2022-09-09T07:56:16;18.10;99.90
18141;DHT22;9196;49.194;12.526;2022-09-09T07:58:47;18.20;99.90
18141;DHT22;9196;49.194;12.526;2022-09-09T08:01:16;18.30;99.90
18141;DHT22;9196;49.194;12.526;2022-09-09T08:03:44;18.40;99.90
18141;DHT22;9196;49.194;12.526;2022-09-09T08:06:11;18.50;99.90
18141;DHT22;9196;49.194;12.526;2022-09-09T08:08:40;18.50;99.90
18141;DHT22;9196;49.194;12.526;2022-09-09T08:11:10;18.50;99.90
18141;DHT22;9196;49.194;12.526;2022-09-09T08:13:38;18.60;99.90
18141;DHT22;9196;49.194;12.526;2022-09-09T08:16:08;18.60;99.90
18141;DHT22;9196;49.194;12.526;2022-09-09T08:18:36;18.60;99.90
18141;DHT22;9196;49.194;12.526;2022-09-09T08:21:11;18.60;99.90
18141;DHT22;9196;49.194;12.526;2022-09-09T08:23:39;18.80;99.90
18141;DHT22;9196;49.194;12.526;2022-09-09T08:26:09;19.00;99.90
18141;DHT22;9196;49.194;12.526;2022-09-09T08:28:36;19.30;99.90
18141;DHT22;9196;49.194;12.526;2022-09-09T08:31:11;19.40;99.90
18141;DHT22;9196;49.194;12.526;2022-09-09T08:33:38;19.50;99.90
18141;DHT22;9196;49.194;12.526;2022-09-09T08:36:09;19.40;99.90
18141;DHT22;9196;49.194;12.526;2022-09-09T08:38:37;19.30;99.90
18141;DHT22;9196;49.194;12.526;2022-09-09T08:41:18;19.10;99.90
18141;DHT22;9196;49.194;12.526;2022-09-09T08:44:02;18.90;99.90
18141;DHT22;9196;49.194;12.526;2022-09-09T08:46:37;18.50;99.90
18141;DHT22;9196;49.194;12.526;2022-09-09T08:49:17;18.30;99.90
18141;DHT22;9196;49.194;12.526;2022-09-09T08:51:46;18.20;99.90
18141;DHT22;9196;49.194;12.526;2022-09-09T08:54:14;18.20;99.90
18141;DHT22;9196;49.194;12.526;2022-09-09T08:56:41;17.90;99.90
18141;DHT22;9196;49.194;12.526;2022-09-09T08:59:10;17.90;99.90
18141;DHT22;9196;49.194;12.526;2022-09-09T09:01:50;17.80;99.90
18141;DHT22;9196;49.194;12.526;2022-09-09T09:04:29;17.70;99.90
18141;DHT22;9196;49.194;12.526;2022-09-09T09:07:07;17.60;99.90
18141;DHT22;9196;49.194;12.526;2022-09-09T09:09:42;17.60;99.90
18141;DHT22;9196;49.194;12.526;2022-09-09T09:12:16;17.60;99.90
18141;DHT22;9196;49.194;12.526;2022-09-09T09:14:44;17.60;99.90
18141;DHT22;9196;49.194;12.526;2022-09-09T09:17:15;17.40;99.90
18141;DHT22;9196;49.194;12.526;2022-09-09T09:19:43;17.30;99.90
18141;DHT22;9196;49.194;12.526;2022-09-09T09:22:16;17.30;99.90
18141;DHT22;9196;49.194;12.526;2022-09-09T09:24:51;17.30;99.90
18141;DHT22;9196;49.194;12.526;2022-09-09T09:27:25;17.20;99.90
18141;DHT22;9196;49.194;12.526;2022-09-09T09:29:55;17.20;99.90
18141;DHT22;9196;49.194;12.526;2022-09-09T09:32:26;17.20;99.90
18141;DHT22;9196;49.194;12.526;2022-09-09T09:34:56;17.20;99.90
18141;DHT22;9196;49.194;12.526;2022-09-09T09:37:27;17.20;99.90
18141;DHT22;9196;49.194;12.526;2022-09-09T09:39:55;17.20;99.90
18141;DHT22;9196;49.194;12.526;2022-09-09T09:42:22;17.30;99.90
18141;DHT22;9196;49.194;12.526;2022-09-09T09:44:49;17.20;99.90
18141;DHT22;9196;49.194;12.526;2022-09-09T09:47:18;17.30;99.90
18141;DHT22;9196;49.194;12.526;2022-09-09T09:49:53;17.30;99.90
18141;DHT22;9196;49.194;12.526;2022-09-09T09:52:22;17.30;99.90
18141;DHT22;9196;49.194;12.526;2022-09-09T09:54:50;17.40;99.90
18141;DHT22;9196;49.194;12.526;2022-09-09T09:57:23;17.40;99.90
18141;DHT22;9196;49.194;12.526;2022-09-09T10:00:01;17.30;99.90
18141;DHT22;9196;49.194;12.526;2022-09-09T10:02:37;17.40;99.90
18141;DHT22;9196;49.194;12.526;2022-09-09T10:05:13;17.40;99.90
18141;DHT22;9196;49.194;12.526;2022-09-09T10:07:40;17.30;99.90
18141;DHT22;9196;49.194;12.526;2022-09-09T10:10:20;17.30;99.90
18141;DHT22;9196;49.194;12.526;2022-09-09T10:12:57;17.30;99.90
18141;DHT22;9196;49.194;12.526;2022-09-09T10:15:35;17.40;99.90
18141;DHT22;9196;49.194;12.526;2022-09-09T10:18:16;17.40;99.90
18141;DHT22;9196;49.194;12.526;2022-09-09T10:20:54;17.50;99.90
18141;DHT22;9196;49.194;12.526;2022-09-09T10:23:33;17.50;99.90
18141;DHT22;9196;49.194;12.526;2022-09-09T10:26:15;17.60;99.90
18141;DHT22;9196;49.194;12.526;2022-09-09T10:31:50;17.70;99.90
18141;DHT22;9196;49.194;12.526;2022-09-09T10:34:30;17.70;99.90
18141;DHT22;9196;49.194;12.526;2022-09-09T10:37:03;17.90;99.90
18141;DHT22;9196;49.194;12.526;2022-09-09T10:39:36;17.90;99.90
18141;DHT22;9196;49.194;12.526;2022-09-09T10:42:08;18.10;99.90
18141;DHT22;9196;49.194;12.526;2022-09-09T10:44:59;18.20;99.90
18141;DHT22;9196;49.194;12.526;2022-09-09T10:47:54;18.30;99.90
18141;DHT22;9196;49.194;12.526;2022-09-09T10:50:43;18.60;99.90
18141;DHT22;9196;49.194;12.526;2022-09-09T10:53:20;18.60;99.90
18141;DHT22;9196;49.194;12.526;2022-09-09T10:55:52;18.80;99.90
18141;DHT22;9196;49.194;12.526;2022-09-09T10:58:23;19.00;99.90
18141;DHT22;9196;49.194;12.526;2022-09-09T11:00:53;19.20;99.90
18141;DHT22;9196;49.194;12.526;2022-09-09T11:03:25;19.50;99.90
18141;DHT22;9196;49.194;12.526;2022-09-09T11:05:56;19.80;99.90
18141;DHT22;9196;49.194;12.526;2022-09-09T11:08:26;20.20;99.90
18141;DHT22;9196;49.194;12.526;2022-09-09T11:10:59;20.40;99.90
18141;DHT22;9196;49.194;12.526;2022-09-09T11:13:33;20.60;99.90
18141;DHT22;9196;49.194;12.526;2022-09-09T11:16:10;20.70;99.90
18141;DHT22;9196;49.194;12.526;2022-09-09T11:18:41;20.60;99.90
18141;DHT22;9196;49.194;12.526;2022-09-09T11:21:13;20.60;99.90
18141;DHT22;9196;49.194;12.526;2022-09-09T11:23:47;20.40;99.90
18141;DHT22;9196;49.194;12.526;2022-09-09T11:26:18;20.50;99.90
18141;DHT22;9196;49.194;12.526;2022-09-09T11:29:01;20.50;99.90
18141;DHT22;9196;49.194;12.526;2022-09-09T11:31:42;20.40;99.90
18141;DHT22;9196;49.194;12.526;2022-09-09T11:34:21;20.20;99.90
18141;DHT22;9196;49.194;12.526;2022-09-09T11:37:08;20.00;99.90
18141;DHT22;9196;49.194;12.526;2022-09-09T11:42:42;20.00;99.90
18141;DHT22;9196;49.194;12.526;2022-09-09T11:45:15;20.00;99.90
18141;DHT22;9196;49.194;12.526;2022-09-09T11:47:52;20.00;99.90
18141;DHT22;9196;49.194;12.526;2022-09-09T11:50:31;20.00;99.90
18141;DHT22;9196;49.194;12.526;2022-09-09T11:53:19;19.90;99.90
18141;DHT22;9196;49.194;12.526;2022-09-09T11:56:02;19.80;99.90
18141;DHT22;9196;49.194;12.526;2022-09-09T11:58:37;19.80;99.90
18141;DHT22;9196;49.194;12.526;2022-09-09T12:01:14;19.90;99.90
18141;DHT22;9196;49.194;12.526;2022-09-09T12:03:43;19.90;99.90
18141;DHT22;9196;49.194;12.526;2022-09-09T12:06:14;19.90;99.90
18141;DHT22;9196;49.194;12.526;2022-09-09T12:08:44;20.00;99.90
18141;DHT22;9196;49.194;12.526;2022-09-09T12:11:24;20.30;99.90
18141;DHT22;9196;49.194;12.526;2022-09-09T12:13:53;20.40;99.90
18141;DHT22;9196;49.194;12.526;2022-09-09T12:16:32;20.50;99.90
18141;DHT22;9196;49.194;12.526;2022-09-09T12:19:13;20.50;99.90
18141;DHT22;9196;49.194;12.526;2022-09-09T12:21:46;20.40;99.90
18141;DHT22;9196;49.194;12.526;2022-09-09T12:24:19;20.40;99.90
18141;DHT22;9196;49.194;12.526;2022-09-09T12:26:52;20.60;99.90
18141;DHT22;9196;49.194;12.526;2022-09-09T12:29:28;20.80;99.90
18141;DHT22;9196;49.194;12.526;2022-09-09T12:32:04;21.00;99.90
18141;DHT22;9196;49.194;12.526;2022-09-09T12:34:38;21.30;99.90
18141;DHT22;9196;49.194;12.526;2022-09-09T12:37:15;21.50;99.90
18141;DHT22;9196;49.194;12.526;2022-09-09T12:39:49;21.70;99.50
18141;DHT22;9196;49.194;12.526;2022-09-09T12:42:19;21.90;99.80
18141;DHT22;9196;49.194;12.526;2022-09-09T12:44:54;22.10;98.80
18141;DHT22;9196;49.194;12.526;2022-09-09T12:47:24;22.10;99.00
18141;DHT22;9196;49.194;12.526;2022-09-09T12:49:52;22.50;99.20
18141;DHT22;9196;49.194;12.526;2022-09-09T12:52:25;22.60;97.40
18141;DHT22;9196;49.194;12.526;2022-09-09T12:54:55;22.70;98.30
18141;DHT22;9196;49.194;12.526;2022-09-09T12:57:26;22.50;97.80
18141;DHT22;9196;49.194;12.526;2022-09-09T13:00:10;22.00;98.60
18141;DHT22;9196;49.194;12.526;2022-09-09T13:02:46;21.70;98.60
18141;DHT22;9196;49.194;12.526;2022-09-09T13:05:18;21.70;98.70
18141;DHT22;9196;49.194;12.526;2022-09-09T13:07:45;21.80;99.90
18141;DHT22;9196;49.194;12.526;2022-09-09T13:10:13;21.90;99.20
18141;DHT22;9196;49.194;12.526;2022-09-09T13:12:42;21.70;99.30
18141;DHT22;9196;49.194;12.526;2022-09-09T13:15:16;21.70;99.80
18141;DHT22;9196;49.194;12.526;2022-09-09T13:17:50;21.60;99.50
18141;DHT22;9196;49.194;12.526;2022-09-09T13:20:20;21.50;99.90
18141;DHT22;9196;49.194;12.526;2022-09-09T13:22:48;21.50;99.90
18141;DHT22;9196;49.194;12.526;2022-09-09T13:25:21;21.60;99.50
18141;DHT22;9196;49.194;12.526;2022-09-09T13:28:20;21.50;99.60
18141;DHT22;9196;49.194;12.526;2022-09-09T13:30:56;21.80;99.90
18141;DHT22;9196;49.194;12.526;2022-09-09T13:33:30;21.80;99.90
18141;DHT22;9196;49.194;12.526;2022-09-09T13:35:59;21.90;99.90
18141;DHT22;9196;49.194;12.526;2022-09-09T13:38:27;21.80;99.90
18141;DHT22;9196;49.194;12.526;2022-09-09T13:40:56;21.90;99.90
18141;DHT22;9196;49.194;12.526;2022-09-09T13:43:26;22.20;99.60
18141;DHT22;9196;49.194;12.526;2022-09-09T13:45:55;22.00;99.30
18141;DHT22;9196;49.194;12.526;2022-09-09T13:48:23;22.10;99.20
18141;DHT22;9196;49.194;12.526;2022-09-09T13:50:58;22.20;99.30
18141;DHT22;9196;49.194;12.526;2022-09-09T13:53:25;22.30;99.10
18141;DHT22;9196;49.194;12.526;2022-09-09T13:55:52;22.30;98.70
18141;DHT22;9196;49.194;12.526;2022-09-09T13:58:19;22.30;98.00
18141;DHT22;9196;49.194;12.526;2022-09-09T14:00:49;22.00;98.00
18141;DHT22;9196;49.194;12.526;2022-09-09T14:03:16;21.70;98.50
18141;DHT22;9196;49.194;12.526;2022-09-09T14:05:44;21.70;99.60
18141;DHT22;9196;49.194;12.526;2022-09-09T14:08:22;21.70;99.80
18141;DHT22;9196;49.194;12.526;2022-09-09T14:10:49;21.40;99.60
18141;DHT22;9196;49.194;12.526;2022-09-09T14:13:16;21.30;99.90
18141;DHT22;9196;49.194;12.526;2022-09-09T14:15:42;20.90;99.90
18141;DHT22;9196;49.194;12.526;2022-09-09T14:18:11;20.90;99.90
18141;DHT22;9196;49.194;12.526;2022-09-09T14:20:39;20.90;99.90
18141;DHT22;9196;49.194;12.526;2022-09-09T14:23:10;20.90;99.90
18141;DHT22;9196;49.194;12.526;2022-09-09T14:25:39;20.70;99.90
18141;DHT22;9196;49.194;12.526;2022-09-09T14:28:09;20.40;99.90
18141;DHT22;9196;49.194;12.526;2022-09-09T14:30:37;20.40;99.90
18141;DHT22;9196;49.194;12.526;2022-09-09T14:33:04;20.40;99.90
18141;DHT22;9196;49.194;12.526;2022-09-09T14:35:32;20.30;99.90
18141;DHT22;9196;49.194;12.526;2022-09-09T14:37:59;20.30;99.90
18141;DHT22;9196;49.194;12.526;2022-09-09T14:40:27;20.20;99.90
18141;DHT22;9196;49.194;12.526;2022-09-09T14:42:54;20.30;99.90
18141;DHT22;9196;49.194;12.526;2022-09-09T14:45:22;20.50;99.90
18141;DHT22;9196;49.194;12.526;2022-09-09T14:47:50;20.40;99.90
18141;DHT22;9196;49.194;12.526;2022-09-09T14:50:17;20.30;99.90
18141;DHT22;9196;49.194;12.526;2022-09-09T14:52:45;20.20;99.90
18141;DHT22;9196;49.194;12.526;2022-09-09T14:55:12;20.10;99.90
18141;DHT22;9196;49.194;12.526;2022-09-09T14:57:39;20.10;99.90
18141;DHT22;9196;49.194;12.526;2022-09-09T15:00:08;20.10;99.90
18141;DHT22;9196;49.194;12.526;2022-09-09T15:02:35;20.20;99.90
18141;DHT22;9196;49.194;12.526;2022-09-09T15:05:01;20.50;99.90
18141;DHT22;9196;49.194;12.526;2022-09-09T15:07:29;20.70;99.90
18141;DHT22;9196;49.194;12.526;2022-09-09T15:09:58;20.90;99.90
18141;DHT22;9196;49.194;12.526;2022-09-09T15:12:25;21.00;99.90
18141;DHT22;9196;49.194;12.526;2022-09-09T15:14:53;21.10;99.90
18141;DHT22;9196;49.194;12.526;2022-09-09T15:17:21;21.20;99.90
18141;DHT22;9196;49.194;12.526;2022-09-09T15:19:48;21.20;99.90
18141;DHT22;9196;49.194;12.526;2022-09-09T15:22:15;21.10;99.90
18141;DHT22;9196;49.194;12.526;2022-09-09T15:24:42;21.00;99.90
18141;DHT22;9196;49.194;12.526;2022-09-09T15:27:10;20.80;99.90
18141;DHT22;9196;49.194;12.526;2022-09-09T15:29:38;20.70;99.90
18141;DHT22;9196;49.194;12.526;2022-09-09T15:32:05;20.70;99.90
18141;DHT22;9196;49.194;12.526;2022-09-09T15:34:31;20.60;99.90
18141;DHT22;9196;49.194;12.526;2022-09-09T15:36:58;20.50;99.90
18141;DHT22;9196;49.194;12.526;2022-09-09T15:39:26;20.30;99.90
18141;DHT22;9196;49.194;12.526;2022-09-09T15:41:52;20.40;99.90
18141;DHT22;9196;49.194;12.526;2022-09-09T15:44:20;20.30;99.90
18141;DHT22;9196;49.194;12.526;2022-09-09T15:46:52;20.40;99.90
18141;DHT22;9196;49.194;12.526;2022-09-09T15:49:21;20.30;99.90
18141;DHT22;9196;49.194;12.526;2022-09-09T15:51:52;20.20;99.90
18141;DHT22;9196;49.194;12.526;2022-09-09T15:54:20;20.00;99.90
18141;DHT22;9196;49.194;12.526;2022-09-09T15:56:51;20.00;99.90
18141;DHT22;9196;49.194;12.526;2022-09-09T15:59:18;20.00;99.90
18141;DHT22;9196;49.194;12.526;2022-09-09T16:01:46;20.00;99.90